Boston, MA

8:54 AM EDT on May 26, 2015 (GMT -0400)
East Milton | | Change Station
CLOSE
Current Station
Airport
Location: East Milton,
Elevation: 630 ft
Nearby Weather Stations

Elev 630 ft 42.21 °N, 71.11 °W | Updated 1 hour ago

Mostly Cloudy
Mostly Cloudy
66 °F
Feels Like 66 °F
N
17
Wind Variable Wind from SSW
Gusts 24 mph

Today
High -- | Low -- °F
--% Chance of Precip.
Yesterday
High -- | Low -- °F
Precip. -- in
5:13 AM 8:09 PM
First Quarter, 58% visible
Pressure 30.19 in
Visibility -9999.0 miles
Clouds
Dew Point 56 °F
Humidity 70%
Rainfall 0.00 in
Snow Depth Not available.
UV Not available.
Pollen 10.70 out of 12
Air Quality Not available.
Flu Activity Local Activity
METAR KMQE 261154Z AUTO 21015G21KT 19/13 A3017 RMK AO1 SLP223 T01890133 10189 20156 53011

More Conditions Fewer Conditions

Pressure 30.19 in
Visibility -9999.0 miles
Clouds
Dew Point 56 °F
Humidity 70%
Rainfall 0.00 in
Snow Depth Not available.
UV Not available.
Pollen 10.70 out of 12
Air Quality Not available.
Flu Activity Local Activity
METAR KMQE 261154Z AUTO 21015G21KT 19/13 A3017 RMK AO1 SLP223 T01890133 10189 20156 53011

More Conditions Fewer Conditions

10-Day Weather Forecast

Almanac

Astronomy

May. 26, 2015 Rise Set
Actual Time
Civil Twilight
Nautical Twilight
Astronomical Twilight
Moon
Length of Visible Light
Length of Day
Tomorrow will be .
, % of the Moon is Illuminated

Today's Extremes

State Highs State Lows

Community

WunderPhotos

Upload Photos

1,824,336 photos uploaded!

WunderBlogs® & News

Nearby

Air Quality

  Air Quality AQ Index Pollutant
Not available.

Snow Depth

Station Depth Elevation

Earthquake Activity

City Distance Mag. Time & Date
Minimum magnitude displayed is 2.5.

Coastal Water Temperatures

Place Temperature

Stations

Nearby Weather Stations

Station Location Temp. Windchill Dew Point Humidity Wind Precip. Elev Updated Type